createdAt,value
2023-02-08T00:00:54.455Z,99.30
2023-02-08T00:03:21.630Z,99.40
2023-02-08T00:05:50.599Z,99.40
2023-02-08T00:08:17.384Z,99.40
2023-02-08T00:10:44.083Z,99.30
2023-02-08T00:13:10.927Z,99.20
2023-02-08T00:15:46.793Z,99.30
2023-02-08T00:18:14.357Z,99.30
2023-02-08T00:20:42.886Z,99.30
2023-02-08T00:23:09.891Z,99.10
2023-02-08T00:25:39.868Z,99.00
2023-02-08T00:28:09.436Z,98.90
2023-02-08T00:30:36.272Z,98.80
2023-02-08T00:33:03.402Z,98.70
2023-02-08T00:35:30.393Z,98.50
2023-02-08T00:38:01.721Z,98.50
2023-02-08T00:40:28.701Z,98.50
2023-02-08T00:42:55.348Z,98.40
2023-02-08T00:45:24.882Z,98.40
2023-02-08T00:47:51.536Z,98.40
2023-02-08T00:50:20.703Z,98.40
2023-02-08T00:52:47.367Z,98.40
2023-02-08T00:55:14.028Z,98.50
2023-02-08T00:57:42.870Z,98.60
2023-02-08T01:00:12.473Z,98.50
2023-02-08T01:02:41.650Z,98.60
2023-02-08T01:05:08.428Z,98.80
2023-02-08T01:07:37.862Z,98.80
2023-02-08T01:10:06.153Z,98.80
2023-02-08T01:12:33.058Z,98.90
2023-02-08T01:15:01.887Z,98.90
2023-02-08T01:17:28.572Z,99.00
2023-02-08T01:19:57.715Z,99.00
2023-02-08T01:22:24.450Z,99.10
2023-02-08T01:24:53.650Z,99.10
2023-02-08T01:27:20.306Z,99.20
2023-02-08T01:29:46.963Z,99.20
2023-02-08T01:32:13.616Z,99.20
2023-02-08T01:34:40.231Z,99.30
2023-02-08T01:37:06.841Z,99.40
2023-02-08T01:39:35.827Z,99.30
2023-02-08T01:42:02.554Z,99.20
2023-02-08T01:45:17.537Z,99.20
2023-02-08T01:47:47.112Z,99.50
2023-02-08T01:50:15.608Z,99.10
2023-02-08T01:52:44.715Z,99.20
2023-02-08T01:55:27.732Z,99.30
2023-02-08T01:58:00.013Z,99.40
2023-02-08T02:00:26.995Z,99.40
2023-02-08T02:02:57.761Z,99.50
2023-02-08T02:05:28.466Z,99.50
2023-02-08T02:07:58.619Z,99.60
2023-02-08T02:10:32.339Z,99.60
2023-02-08T02:13:02.809Z,99.70
2023-02-08T02:15:29.509Z,99.80
2023-02-08T02:17:56.294Z,99.80
2023-02-08T02:20:59.334Z,99.90
2023-02-08T02:23:44.663Z,99.90
2023-02-08T02:26:33.126Z,99.90
2023-02-08T02:29:18.446Z,99.90
2023-02-08T02:32:04.166Z,99.90
2023-02-08T02:34:52.060Z,99.90
2023-02-08T02:37:44.568Z,99.90
2023-02-08T02:40:36.988Z,99.90
2023-02-08T02:43:42.720Z,99.90
2023-02-08T02:46:29.930Z,99.90
2023-02-08T02:49:25.244Z,99.90
2023-02-08T02:52:22.048Z,99.90
2023-02-08T02:54:52.978Z,99.90
2023-02-08T02:57:28.027Z,99.90
2023-02-08T02:59:54.700Z,99.90
2023-02-08T03:02:21.973Z,99.90
2023-02-08T03:04:51.557Z,99.90
2023-02-08T03:07:20.900Z,99.90
2023-02-08T03:10:06.286Z,99.90
2023-02-08T03:13:01.481Z,99.90
2023-02-08T03:15:40.921Z,99.90
2023-02-08T03:18:30.405Z,99.90
2023-02-08T03:21:19.286Z,99.90
2023-02-08T03:24:12.704Z,99.90
2023-02-08T03:26:46.880Z,99.90
2023-02-08T03:29:25.757Z,99.90
2023-02-08T03:31:59.297Z,99.90
2023-02-08T03:34:33.859Z,99.90
2023-02-08T03:37:08.301Z,99.90
2023-02-08T03:39:36.581Z,99.90
2023-02-08T03:42:11.581Z,99.90
2023-02-08T03:45:01.219Z,99.90
2023-02-08T03:47:33.073Z,99.90
2023-02-08T03:50:05.002Z,99.90
2023-02-08T03:52:32.666Z,99.90
2023-02-08T03:55:05.325Z,99.90
2023-02-08T03:57:38.175Z,99.90
2023-02-08T04:00:12.163Z,99.90
2023-02-08T04:02:59.287Z,99.90
2023-02-08T04:05:31.332Z,99.90
2023-02-08T04:07:58.017Z,99.90
2023-02-08T04:10:24.800Z,99.90
2023-02-08T04:12:51.443Z,99.90
2023-02-08T04:15:18.823Z,99.90
2023-02-08T04:17:45.426Z,99.90
2023-02-08T04:20:15.101Z,99.90
2023-02-08T04:22:44.338Z,99.90
2023-02-08T04:25:13.606Z,99.90
2023-02-08T04:27:42.443Z,99.90
2023-02-08T04:30:09.674Z,99.90
2023-02-08T04:32:36.341Z,99.90
2023-02-08T04:35:03.319Z,99.90
2023-02-08T04:37:32.644Z,99.90
2023-02-08T04:39:59.349Z,99.90
2023-02-08T04:42:28.583Z,99.90
2023-02-08T04:44:57.706Z,99.90
2023-02-08T04:47:26.804Z,99.90
2023-02-08T04:49:55.924Z,99.90
2023-02-08T04:52:22.568Z,99.90
2023-02-08T04:54:49.233Z,99.90
2023-02-08T04:57:18.374Z,99.90
2023-02-08T04:59:45.039Z,99.90
2023-02-08T05:02:14.051Z,99.90
2023-02-08T05:04:43.242Z,99.90
2023-02-08T05:07:09.861Z,99.90
2023-02-08T05:09:36.469Z,99.90
2023-02-08T05:12:08.047Z,99.90
2023-02-08T05:14:34.681Z,99.90
2023-02-08T05:17:03.454Z,99.90
2023-02-08T05:19:30.285Z,99.90
2023-02-08T05:21:56.945Z,99.90
2023-02-08T05:24:23.600Z,99.90
2023-02-08T05:26:50.329Z,99.90
2023-02-08T05:29:16.969Z,99.90
2023-02-08T05:31:43.822Z,99.90
2023-02-08T05:34:12.857Z,99.90
2023-02-08T05:36:41.706Z,99.90
2023-02-08T05:39:08.363Z,99.90
2023-02-08T05:41:37.441Z,99.90
2023-02-08T05:44:04.144Z,99.90
2023-02-08T05:46:30.922Z,99.90
2023-02-08T05:48:57.677Z,99.90
2023-02-08T05:51:24.501Z,99.90
2023-02-08T05:53:51.242Z,99.90
2023-02-08T05:56:17.933Z,99.90
2023-02-08T05:58:44.692Z,99.90
2023-02-08T06:01:13.116Z,99.90
2023-02-08T06:03:44.857Z,99.90
2023-02-08T06:06:11.857Z,99.90
2023-02-08T06:08:39.826Z,99.90
2023-02-08T06:11:08.960Z,99.90
2023-02-08T06:13:35.710Z,99.90
2023-02-08T06:16:02.474Z,99.90
2023-02-08T06:18:29.129Z,99.90
2023-02-08T06:20:58.085Z,99.90
2023-02-08T06:23:25.264Z,99.90
2023-02-08T06:25:54.262Z,99.90
2023-02-08T06:28:21.165Z,99.90
2023-02-08T06:30:50.101Z,99.90
2023-02-08T06:33:17.748Z,99.90
2023-02-08T06:35:51.227Z,99.90
2023-02-08T06:38:20.815Z,99.90
2023-02-08T06:40:48.534Z,99.90
2023-02-08T06:43:16.208Z,99.90
2023-02-08T06:45:46.093Z,99.90
2023-02-08T06:48:15.680Z,99.90
2023-02-08T06:50:44.821Z,99.90
2023-02-08T06:53:11.490Z,99.90
2023-02-08T06:55:38.713Z,99.90
2023-02-08T06:58:05.480Z,99.90
2023-02-08T07:00:32.860Z,99.90
2023-02-08T07:03:00.852Z,99.90
2023-02-08T07:05:27.901Z,99.90
2023-02-08T07:07:54.779Z,99.90
2023-02-08T07:10:24.214Z,99.90
2023-02-08T07:12:50.952Z,99.90
2023-02-08T07:15:17.837Z,99.90
2023-02-08T07:17:44.644Z,99.90
2023-02-08T07:20:11.843Z,99.90
2023-02-08T07:22:39.815Z,99.90
2023-02-08T07:25:08.169Z,99.90
2023-02-08T07:27:35.477Z,99.90
2023-02-08T07:30:02.552Z,99.90
2023-02-08T07:32:34.352Z,99.90
2023-02-08T07:35:01.481Z,99.90
2023-02-08T07:37:28.349Z,99.90
2023-02-08T07:39:55.348Z,99.90
2023-02-08T07:42:22.007Z,99.90
2023-02-08T07:44:49.103Z,99.90
2023-02-08T07:47:18.210Z,99.90
2023-02-08T07:49:44.899Z,99.90
2023-02-08T07:52:14.082Z,99.90
2023-02-08T07:54:40.735Z,99.90
2023-02-08T07:57:08.013Z,99.90
2023-02-08T07:59:34.648Z,99.90
2023-02-08T08:02:01.376Z,99.90
2023-02-08T08:04:28.130Z,99.90
2023-02-08T08:06:54.758Z,99.90
2023-02-08T08:09:21.565Z,99.90
2023-02-08T08:11:48.321Z,99.90
2023-02-08T08:14:14.946Z,99.90
2023-02-08T08:16:44.299Z,99.90
2023-02-08T08:19:11.045Z,99.90
2023-02-08T08:21:37.946Z,99.90
2023-02-08T08:24:04.781Z,99.90
2023-02-08T08:26:35.208Z,99.90
2023-02-08T08:29:03.034Z,99.80
2023-02-08T08:31:30.959Z,99.20
2023-02-08T08:33:57.894Z,98.80
2023-02-08T08:36:27.909Z,98.40
2023-02-08T08:38:59.065Z,98.10
2023-02-08T08:41:28.495Z,97.20
2023-02-08T08:43:55.288Z,96.60
2023-02-08T08:46:22.211Z,96.00
2023-02-08T08:48:51.339Z,95.70
2023-02-08T08:51:20.195Z,95.40
2023-02-08T08:53:46.873Z,94.70
2023-02-08T08:56:13.719Z,94.10
2023-02-08T08:58:40.478Z,93.70
2023-02-08T09:01:07.301Z,93.20
2023-02-08T09:03:34.417Z,92.60
2023-02-08T09:06:01.191Z,92.00
2023-02-08T09:08:27.908Z,92.00
2023-02-08T09:10:57.130Z,91.20
2023-02-08T09:13:23.934Z,91.20
2023-02-08T09:15:53.074Z,90.50
2023-02-08T09:18:19.818Z,90.20
2023-02-08T09:20:46.788Z,90.20
2023-02-08T09:23:14.569Z,86.60
2023-02-08T09:25:41.495Z,86.40
2023-02-08T09:28:08.332Z,84.90
2023-02-08T09:30:35.900Z,85.10
2023-02-08T09:33:04.932Z,83.70
2023-02-08T09:35:31.756Z,82.90
2023-02-08T09:38:02.228Z,81.20
2023-02-08T09:40:49.310Z,79.90
2023-02-08T09:43:26.020Z,80.50
2023-02-08T09:46:17.420Z,77.90
2023-02-08T09:48:45.729Z,75.70
2023-02-08T09:51:55.757Z,76.30
2023-02-08T09:54:40.083Z,75.90
2023-02-08T09:57:13.500Z,76.40
2023-02-08T09:59:44.796Z,80.40
2023-02-08T10:02:11.442Z,79.80
2023-02-08T10:04:43.861Z,77.30
2023-02-08T10:07:13.987Z,76.00
2023-02-08T10:09:40.880Z,75.50
2023-02-08T10:12:28.801Z,74.30
2023-02-08T10:15:14.108Z,70.70
2023-02-08T10:18:02.593Z,67.40
2023-02-08T10:20:51.332Z,63.50
2023-02-08T10:23:42.989Z,61.00
2023-02-08T10:26:12.503Z,58.90
2023-02-08T10:29:03.388Z,56.60
2023-02-08T10:32:00.708Z,54.20
2023-02-08T10:34:33.198Z,51.90
2023-02-08T10:37:02.894Z,49.20
2023-02-08T10:39:35.782Z,45.90
2023-02-08T10:42:04.516Z,44.70
2023-02-08T10:44:38.118Z,42.60
2023-02-08T10:47:08.943Z,42.30
2023-02-08T10:49:53.007Z,40.60
2023-02-08T10:52:20.060Z,40.00
2023-02-08T10:54:46.790Z,39.20
2023-02-08T10:57:25.187Z,38.40
2023-02-08T10:59:56.422Z,37.20
2023-02-08T11:02:27.265Z,36.60
2023-02-08T11:05:12.481Z,36.40
2023-02-08T11:07:39.899Z,36.10
2023-02-08T11:10:21.446Z,35.80
2023-02-08T11:13:05.631Z,34.30
2023-02-08T11:15:52.625Z,34.80
2023-02-08T11:18:26.508Z,34.50
2023-02-08T11:20:59.561Z,34.50
2023-02-08T11:23:30.340Z,33.90
2023-02-08T11:26:20.260Z,32.80
2023-02-08T11:29:13.405Z,33.10
2023-02-08T11:31:56.533Z,33.60
2023-02-08T11:34:43.649Z,32.70
2023-02-08T11:37:23.130Z,31.90
2023-02-08T11:39:54.269Z,31.20
2023-02-08T11:42:25.508Z,31.80
2023-02-08T11:44:54.068Z,31.60
2023-02-08T11:47:28.787Z,31.30
2023-02-08T11:50:02.030Z,30.60
2023-02-08T11:52:36.105Z,31.20
2023-02-08T11:55:25.318Z,30.00
2023-02-08T11:57:53.852Z,30.00
2023-02-08T12:00:26.360Z,30.00
2023-02-08T12:03:01.036Z,29.90
2023-02-08T12:05:45.732Z,29.50
2023-02-08T12:08:31.084Z,29.60
2023-02-08T12:10:57.777Z,29.60
2023-02-08T12:13:51.733Z,28.80
2023-02-08T12:16:34.302Z,28.80
2023-02-08T12:19:16.213Z,29.50
2023-02-08T12:21:49.850Z,30.00
2023-02-08T12:24:25.388Z,30.00
2023-02-08T12:27:02.896Z,29.60
2023-02-08T12:29:47.789Z,29.10
2023-02-08T12:32:53.057Z,28.80
2023-02-08T12:35:40.162Z,28.50
2023-02-08T12:38:51.165Z,28.50
2023-02-08T12:41:43.403Z,28.20
2023-02-08T12:44:23.953Z,28.60
2023-02-08T12:46:55.834Z,28.90
2023-02-08T12:49:37.663Z,29.20
2023-02-08T12:52:13.212Z,29.10
2023-02-08T12:54:58.263Z,29.70
2023-02-08T12:57:31.747Z,29.40
2023-02-08T13:00:40.487Z,29.60
2023-02-08T13:03:17.239Z,29.40
2023-02-08T13:06:01.755Z,29.40
2023-02-08T13:08:29.291Z,29.20
2023-02-08T13:11:14.060Z,29.50
2023-02-08T13:13:55.596Z,29.60
2023-02-08T13:16:26.543Z,28.70
2023-02-08T13:19:00.541Z,29.20
2023-02-08T13:21:32.313Z,29.30
2023-02-08T13:24:00.391Z,29.20
2023-02-08T13:26:34.305Z,28.70
2023-02-08T13:29:02.771Z,29.20
2023-02-08T13:31:33.692Z,29.30
2023-02-08T13:34:27.529Z,29.10
2023-02-08T13:37:08.854Z,29.30
2023-02-08T13:39:48.977Z,28.80
2023-02-08T13:42:27.464Z,29.40
2023-02-08T13:44:56.229Z,29.20
2023-02-08T13:47:27.600Z,29.10
2023-02-08T13:50:00.848Z,29.40
2023-02-08T13:52:47.413Z,29.60
2023-02-08T13:55:55.900Z,29.80
2023-02-08T13:58:26.570Z,29.50
2023-02-08T14:01:00.938Z,28.60
2023-02-08T14:03:32.687Z,28.60
2023-02-08T14:06:07.075Z,28.60
2023-02-08T14:08:41.889Z,28.60
2023-02-08T14:11:50.074Z,28.50
2023-02-08T14:14:40.155Z,28.10
2023-02-08T14:17:18.854Z,28.20
2023-02-08T14:19:55.752Z,28.00
2023-02-08T14:22:22.564Z,28.50
2023-02-08T14:25:07.414Z,28.90
2023-02-08T14:27:42.403Z,28.50
2023-02-08T14:30:23.914Z,28.20
2023-02-08T14:33:12.510Z,28.60
2023-02-08T14:35:55.266Z,29.50
2023-02-08T14:38:32.681Z,30.20
2023-02-08T14:41:01.685Z,30.20
2023-02-08T14:43:42.784Z,30.20
2023-02-08T14:46:37.284Z,30.80
2023-02-08T14:49:17.634Z,30.60
2023-02-08T14:52:10.061Z,30.80
2023-02-08T14:54:48.312Z,31.20
2023-02-08T14:57:26.395Z,31.30
2023-02-08T14:59:54.072Z,32.10
2023-02-08T15:02:25.663Z,32.90
2023-02-08T15:04:52.945Z,33.10
2023-02-08T15:07:42.066Z,33.30
2023-02-08T15:10:16.906Z,33.60
2023-02-08T15:12:46.234Z,33.80
2023-02-08T15:15:32.893Z,34.80
2023-02-08T15:18:01.420Z,35.10
2023-02-08T15:20:31.465Z,35.60
2023-02-08T15:23:18.399Z,36.10
2023-02-08T15:25:53.785Z,36.40
2023-02-08T15:28:23.254Z,37.40
2023-02-08T15:30:55.060Z,37.40
2023-02-08T15:33:21.949Z,37.60
2023-02-08T15:36:01.608Z,38.00
2023-02-08T15:38:34.487Z,38.50
2023-02-08T15:41:10.870Z,38.40
2023-02-08T15:43:39.954Z,38.70
2023-02-08T15:46:21.556Z,39.40
2023-02-08T15:48:49.453Z,39.70
2023-02-08T15:51:17.307Z,40.80
2023-02-08T15:53:47.744Z,41.50
2023-02-08T15:56:36.795Z,42.10
2023-02-08T15:59:09.659Z,42.70
2023-02-08T16:01:37.176Z,43.50
2023-02-08T16:04:12.250Z,44.60
2023-02-08T16:06:49.277Z,44.90
2023-02-08T16:09:28.249Z,45.70
2023-02-08T16:12:00.717Z,46.90
2023-02-08T16:14:29.925Z,47.80
2023-02-08T16:16:58.419Z,48.70
2023-02-08T16:19:33.571Z,49.30
2023-02-08T16:22:22.584Z,50.00
2023-02-08T16:24:50.862Z,50.70
2023-02-08T16:27:30.260Z,51.90
2023-02-08T16:29:57.518Z,52.20
2023-02-08T16:32:31.641Z,53.10
2023-02-08T16:34:58.862Z,53.70
2023-02-08T16:37:28.597Z,54.20
2023-02-08T16:40:15.826Z,54.80
2023-02-08T16:42:44.196Z,55.20
2023-02-08T16:45:16.983Z,55.60
2023-02-08T16:47:54.569Z,56.10
2023-02-08T16:50:27.023Z,56.60
2023-02-08T16:53:01.703Z,57.20
2023-02-08T16:55:31.654Z,57.70
2023-02-08T16:57:59.246Z,58.00
2023-02-08T17:00:36.299Z,58.30
2023-02-08T17:03:03.059Z,58.70
2023-02-08T17:05:36.989Z,59.20
2023-02-08T17:08:09.717Z,59.50
2023-02-08T17:10:37.005Z,59.90
2023-02-08T17:13:19.095Z,60.40
2023-02-08T17:15:48.649Z,60.80
2023-02-08T17:18:15.646Z,61.30
2023-02-08T17:20:43.248Z,61.80
2023-02-08T17:23:10.338Z,62.30
2023-02-08T17:25:37.507Z,62.80
2023-02-08T17:28:11.634Z,63.30
2023-02-08T17:30:43.061Z,63.60
2023-02-08T17:33:18.051Z,64.10
2023-02-08T17:35:47.468Z,64.70
2023-02-08T17:38:15.449Z,65.30
2023-02-08T17:40:42.746Z,66.10
2023-02-08T17:43:11.375Z,66.40
2023-02-08T17:45:39.685Z,66.70
2023-02-08T17:48:06.893Z,66.90
2023-02-08T17:50:37.110Z,67.90
2023-02-08T17:53:04.175Z,67.80
2023-02-08T17:55:31.302Z,68.10
2023-02-08T17:57:58.476Z,68.30
2023-02-08T18:00:27.692Z,68.90
2023-02-08T18:02:55.788Z,69.60
2023-02-08T18:05:29.861Z,70.00
2023-02-08T18:07:57.303Z,70.60
2023-02-08T18:10:28.309Z,71.20
2023-02-08T18:12:55.110Z,71.90
2023-02-08T18:15:22.296Z,72.40
2023-02-08T18:17:51.798Z,73.00
2023-02-08T18:20:22.218Z,73.40
2023-02-08T18:22:48.984Z,74.00
2023-02-08T18:25:19.112Z,74.30
2023-02-08T18:27:45.777Z,74.80
2023-02-08T18:30:16.440Z,75.30
2023-02-08T18:32:43.171Z,75.60
2023-02-08T18:35:12.295Z,76.20
2023-02-08T18:37:39.798Z,76.60
2023-02-08T18:40:08.169Z,77.00
2023-02-08T18:42:36.162Z,77.60
2023-02-08T18:45:04.373Z,77.90
2023-02-08T18:47:31.044Z,78.30
2023-02-08T18:49:59.968Z,79.00
2023-02-08T18:52:26.703Z,79.20
2023-02-08T18:54:53.481Z,80.00
2023-02-08T18:57:22.891Z,80.60
2023-02-08T18:59:54.003Z,81.20
2023-02-08T19:02:22.174Z,81.50
2023-02-08T19:04:49.062Z,82.00
2023-02-08T19:07:16.321Z,82.40
2023-02-08T19:09:43.943Z,83.10
2023-02-08T19:12:15.479Z,84.10
2023-02-08T19:14:43.364Z,84.80
2023-02-08T19:17:11.465Z,85.40
2023-02-08T19:19:39.772Z,86.20
2023-02-08T19:22:06.482Z,87.00
2023-02-08T19:24:35.482Z,87.50
2023-02-08T19:27:02.365Z,88.00
2023-02-08T19:29:29.238Z,88.90
2023-02-08T19:31:58.563Z,89.20
2023-02-08T19:34:30.568Z,89.50
2023-02-08T19:36:57.500Z,90.10
2023-02-08T19:39:28.176Z,90.30
2023-02-08T19:41:59.037Z,90.50
2023-02-08T19:44:29.080Z,90.90
2023-02-08T19:46:57.214Z,91.10
2023-02-08T19:49:25.988Z,91.30
2023-02-08T19:51:53.732Z,91.50
2023-02-08T19:54:21.485Z,91.70
2023-02-08T19:56:54.467Z,91.90
2023-02-08T19:59:27.376Z,91.90
2023-02-08T20:01:54.957Z,92.10
2023-02-08T20:04:22.750Z,92.20
2023-02-08T20:06:52.645Z,92.30
2023-02-08T20:09:19.355Z,92.40
2023-02-08T20:12:01.268Z,92.40
2023-02-08T20:14:32.730Z,92.70
2023-02-08T20:17:03.339Z,92.90
2023-02-08T20:19:30.060Z,93.00
2023-02-08T20:21:56.812Z,93.20
2023-02-08T20:24:23.580Z,93.40
2023-02-08T20:26:50.391Z,93.60
2023-02-08T20:29:19.992Z,93.70
2023-02-08T20:31:49.355Z,93.80
2023-02-08T20:34:18.589Z,94.00
2023-02-08T20:36:57.448Z,94.20
2023-02-08T20:39:32.160Z,94.30
2023-02-08T20:41:58.804Z,94.40
2023-02-08T20:44:28.560Z,94.50
2023-02-08T20:46:55.356Z,94.80
2023-02-08T20:49:25.530Z,94.70
2023-02-08T20:51:53.494Z,94.90
2023-02-08T20:54:20.449Z,95.20
2023-02-08T20:56:53.024Z,95.40
2023-02-08T20:59:22.383Z,95.70
2023-02-08T21:01:49.659Z,95.90
2023-02-08T21:04:23.137Z,95.80
2023-02-08T21:06:53.106Z,95.90
2023-02-08T21:09:20.536Z,96.00
2023-02-08T21:11:47.496Z,96.10
2023-02-08T21:14:19.021Z,96.10
2023-02-08T21:16:48.401Z,96.20
2023-02-08T21:19:15.678Z,96.30
2023-02-08T21:21:43.216Z,96.40
2023-02-08T21:24:12.469Z,96.50
2023-02-08T21:26:39.161Z,96.60
2023-02-08T21:29:06.617Z,96.70
2023-02-08T21:31:36.430Z,96.70
2023-02-08T21:34:03.852Z,96.70
2023-02-08T21:36:33.210Z,96.90
2023-02-08T21:39:02.437Z,96.80
2023-02-08T21:41:33.355Z,96.90
2023-02-08T21:44:03.180Z,96.80
2023-02-08T21:46:31.256Z,96.70
2023-02-08T21:49:17.136Z,96.80
2023-02-08T21:52:03.141Z,96.90
2023-02-08T21:54:41.836Z,96.80
2023-02-08T21:57:26.435Z,96.90
2023-02-08T21:59:57.070Z,96.90
2023-02-08T22:02:28.652Z,97.00
2023-02-08T22:04:59.779Z,97.10
2023-02-08T22:07:27.783Z,97.10
2023-02-08T22:09:56.022Z,97.10
2023-02-08T22:12:23.344Z,97.20
2023-02-08T22:14:51.159Z,97.50
2023-02-08T22:17:18.144Z,97.80
2023-02-08T22:19:44.978Z,98.00
2023-02-08T22:22:12.321Z,98.20
2023-02-08T22:24:39.170Z,98.40
2023-02-08T22:27:05.899Z,98.60
2023-02-08T22:29:35.014Z,98.70
2023-02-08T22:32:01.911Z,98.80
2023-02-08T22:34:31.386Z,98.90
2023-02-08T22:37:03.678Z,99.00
2023-02-08T22:39:32.895Z,99.10
2023-02-08T22:41:59.606Z,99.10
2023-02-08T22:44:31.137Z,99.20
2023-02-08T22:46:57.766Z,99.20
2023-02-08T22:49:26.618Z,99.20
2023-02-08T22:51:53.549Z,99.30
2023-02-08T22:54:20.280Z,99.40
2023-02-08T22:56:46.953Z,99.40
2023-02-08T22:59:13.558Z,99.50
2023-02-08T23:01:40.300Z,99.40
2023-02-08T23:04:07.012Z,99.50
2023-02-08T23:06:34.294Z,99.60
2023-02-08T23:09:01.426Z,99.70
2023-02-08T23:11:30.492Z,99.80
2023-02-08T23:13:57.426Z,99.90
2023-02-08T23:16:25.679Z,99.90
2023-02-08T23:18:52.461Z,99.90
2023-02-08T23:21:21.453Z,99.90
2023-02-08T23:23:48.612Z,99.90
2023-02-08T23:26:17.973Z,99.90
2023-02-08T23:28:45.629Z,99.90
2023-02-08T23:31:14.221Z,99.90
2023-02-08T23:33:41.213Z,99.90
2023-02-08T23:36:10.310Z,99.90
2023-02-08T23:38:37.473Z,99.90
2023-02-08T23:41:05.735Z,99.90
2023-02-08T23:43:32.666Z,99.90
2023-02-08T23:46:02.045Z,99.90
2023-02-08T23:48:28.706Z,99.90
2023-02-08T23:50:59.821Z,99.90
2023-02-08T23:53:30.263Z,99.90
2023-02-08T23:56:09.565Z,99.90
2023-02-08T23:58:38.848Z,99.90
